sensor_id;sensor_type;location;lat;lon;timestamp;pressure;altitude;pressure_sealevel;temperature;humidity
55590;BME280;41452;42.780;23.116;2023-08-08T00:01:47;94265.00;;;16.09;100.00
55590;BME280;41452;42.780;23.116;2023-08-08T00:04:14;94245.16;;;16.01;100.00
55590;BME280;41452;42.780;23.116;2023-08-08T00:06:39;94221.03;;;15.72;100.00
55590;BME280;41452;42.780;23.116;2023-08-08T00:09:04;94257.06;;;15.99;100.00
55590;BME280;41452;42.780;23.116;2023-08-08T00:11:30;94229.50;;;15.74;100.00
55590;BME280;41452;42.780;23.116;2023-08-08T00:13:56;94257.06;;;15.93;100.00
55590;BME280;41452;42.780;23.116;2023-08-08T00:16:22;94268.72;;;15.82;100.00
55590;BME280;41452;42.780;23.116;2023-08-08T00:18:48;94256.81;;;15.80;100.00
55590;BME280;41452;42.780;23.116;2023-08-08T00:21:15;94273.25;;;15.82;100.00
55590;BME280;41452;42.780;23.116;2023-08-08T00:23:41;94263.69;;;15.75;100.00
55590;BME280;41452;42.780;23.116;2023-08-08T00:26:06;94280.91;;;15.78;100.00
55590;BME280;41452;42.780;23.116;2023-08-08T00:28:32;94281.41;;;15.70;100.00
55590;BME280;41452;42.780;23.116;2023-08-08T00:30:57;94269.22;;;15.58;100.00
55590;BME280;41452;42.780;23.116;2023-08-08T00:33:22;94260.75;;;15.56;100.00
55590;BME280;41452;42.780;23.116;2023-08-08T00:35:48;94272.91;;;15.63;100.00
55590;BME280;41452;42.780;23.116;2023-08-08T00:38:13;94277.44;;;15.67;100.00
55590;BME280;41452;42.780;23.116;2023-08-08T00:40:39;94284.03;;;15.65;100.00
55590;BME280;41452;42.780;23.116;2023-08-08T00:43:05;94282.44;;;15.58;100.00
55590;BME280;41452;42.780;23.116;2023-08-08T00:45:30;94273.44;;;15.54;100.00
55590;BME280;41452;42.780;23.116;2023-08-08T00:47:56;94287.75;;;15.58;100.00
55590;BME280;41452;42.780;23.116;2023-08-08T00:50:21;94285.84;;;15.49;100.00
55590;BME280;41452;42.780;23.116;2023-08-08T00:52:47;94288.75;;;15.32;100.00
55590;BME280;41452;42.780;23.116;2023-08-08T00:55:13;94316.03;;;15.43;100.00
55590;BME280;41452;42.780;23.116;2023-08-08T00:57:40;94311.00;;;15.41;100.00
55590;BME280;41452;42.780;23.116;2023-08-08T01:00:07;94309.63;;;15.28;100.00
55590;BME280;41452;42.780;23.116;2023-08-08T01:02:35;94309.38;;;15.25;100.00
55590;BME280;41452;42.780;23.116;2023-08-08T01:05:01;94290.50;;;15.06;100.00
55590;BME280;41452;42.780;23.116;2023-08-08T01:10:00;94302.88;;;14.90;100.00
55590;BME280;41452;42.780;23.116;2023-08-08T01:12:38;94317.44;;;14.97;100.00
55590;BME280;41452;42.780;23.116;2023-08-08T01:15:06;94324.78;;;14.85;100.00
55590;BME280;41452;42.780;23.116;2023-08-08T01:17:35;94323.19;;;14.79;100.00
55590;BME280;41452;42.780;23.116;2023-08-08T01:20:02;94313.38;;;14.74;100.00
55590;BME280;41452;42.780;23.116;2023-08-08T01:22:35;94318.63;;;14.64;100.00
55590;BME280;41452;42.780;23.116;2023-08-08T01:25:01;94324.91;;;14.58;100.00
55590;BME280;41452;42.780;23.116;2023-08-08T01:27:26;94327.47;;;14.48;100.00
55590;BME280;41452;42.780;23.116;2023-08-08T01:29:52;94328.97;;;14.38;100.00
55590;BME280;41452;42.780;23.116;2023-08-08T01:32:18;94322.13;;;14.42;100.00
55590;BME280;41452;42.780;23.116;2023-08-08T01:34:43;94323.13;;;14.31;100.00
55590;BME280;41452;42.780;23.116;2023-08-08T01:39:46;94335.88;;;14.39;100.00
55590;BME280;41452;42.780;23.116;2023-08-08T01:42:14;94339.84;;;14.42;100.00
55590;BME280;41452;42.780;23.116;2023-08-08T01:44:41;94341.44;;;14.43;100.00
55590;BME280;41452;42.780;23.116;2023-08-08T01:47:07;94341.97;;;14.45;100.00
55590;BME280;41452;42.780;23.116;2023-08-08T01:49:33;94351.72;;;14.39;100.00
55590;BME280;41452;42.780;23.116;2023-08-08T01:51:58;94328.41;;;14.31;100.00
55590;BME280;41452;42.780;23.116;2023-08-08T01:54:24;94344.78;;;14.33;100.00
55590;BME280;41452;42.780;23.116;2023-08-08T01:56:50;94327.88;;;14.29;100.00
55590;BME280;41452;42.780;23.116;2023-08-08T01:59:15;94339.50;;;14.33;100.00
55590;BME280;41452;42.780;23.116;2023-08-08T02:01:40;94315.38;;;14.14;100.00
55590;BME280;41452;42.780;23.116;2023-08-08T02:04:06;94346.38;;;14.29;100.00
55590;BME280;41452;42.780;23.116;2023-08-08T02:06:31;94367.03;;;14.37;100.00
55590;BME280;41452;42.780;23.116;2023-08-08T02:08:57;94329.88;;;14.17;100.00
55590;BME280;41452;42.780;23.116;2023-08-08T02:11:23;94345.31;;;14.30;100.00
55590;BME280;41452;42.780;23.116;2023-08-08T02:13:48;94349.59;;;14.36;100.00
55590;BME280;41452;42.780;23.116;2023-08-08T02:16:14;94333.16;;;14.29;100.00
55590;BME280;41452;42.780;23.116;2023-08-08T02:18:39;94327.28;;;14.22;100.00
55590;BME280;41452;42.780;23.116;2023-08-08T02:21:07;94347.63;;;14.21;100.00
55590;BME280;41452;42.780;23.116;2023-08-08T02:23:33;94334.44;;;14.21;100.00
55590;BME280;41452;42.780;23.116;2023-08-08T02:25:58;94335.22;;;14.22;100.00
55590;BME280;41452;42.780;23.116;2023-08-08T02:28:23;94358.00;;;14.33;100.00
55590;BME280;41452;42.780;23.116;2023-08-08T02:30:49;94371.75;;;14.35;100.00
55590;BME280;41452;42.780;23.116;2023-08-08T02:33:14;94358.25;;;14.32;100.00
55590;BME280;41452;42.780;23.116;2023-08-08T02:35:40;94357.59;;;14.47;100.00
55590;BME280;41452;42.780;23.116;2023-08-08T02:38:05;94345.91;;;14.37;100.00
55590;BME280;41452;42.780;23.116;2023-08-08T02:40:30;94377.41;;;14.49;100.00
55590;BME280;41452;42.780;23.116;2023-08-08T02:42:56;94375.13;;;14.58;100.00
55590;BME280;41452;42.780;23.116;2023-08-08T02:45:21;94375.41;;;14.61;100.00
55590;BME280;41452;42.780;23.116;2023-08-08T02:47:46;94377.28;;;14.61;100.00
55590;BME280;41452;42.780;23.116;2023-08-08T02:50:12;94381.22;;;14.63;100.00
55590;BME280;41452;42.780;23.116;2023-08-08T02:52:37;94385.19;;;14.61;100.00
55590;BME280;41452;42.780;23.116;2023-08-08T02:55:03;94381.94;;;14.54;100.00
55590;BME280;41452;42.780;23.116;2023-08-08T02:57:28;94375.59;;;14.50;100.00
55590;BME280;41452;42.780;23.116;2023-08-08T02:59:54;94392.59;;;14.59;100.00
55590;BME280;41452;42.780;23.116;2023-08-08T03:02:19;94398.91;;;14.58;100.00
55590;BME280;41452;42.780;23.116;2023-08-08T03:04:44;94395.41;;;14.52;100.00
55590;BME280;41452;42.780;23.116;2023-08-08T03:07:10;94382.38;;;14.40;100.00
55590;BME280;41452;42.780;23.116;2023-08-08T03:09:35;94362.13;;;14.19;100.00
55590;BME280;41452;42.780;23.116;2023-08-08T03:12:01;94379.91;;;14.29;100.00
55590;BME280;41452;42.780;23.116;2023-08-08T03:14:26;94375.09;;;14.20;100.00
55590;BME280;41452;42.780;23.116;2023-08-08T03:16:51;94400.50;;;14.26;100.00
55590;BME280;41452;42.780;23.116;2023-08-08T03:19:17;94389.66;;;14.28;100.00
55590;BME280;41452;42.780;23.116;2023-08-08T03:21:42;94391.03;;;14.31;100.00
55590;BME280;41452;42.780;23.116;2023-08-08T03:24:08;94386.56;;;14.36;100.00
55590;BME280;41452;42.780;23.116;2023-08-08T03:26:33;94398.22;;;14.40;100.00
55590;BME280;41452;42.780;23.116;2023-08-08T03:28:58;94407.63;;;14.26;100.00
55590;BME280;41452;42.780;23.116;2023-08-08T03:31:24;94398.56;;;14.17;100.00
55590;BME280;41452;42.780;23.116;2023-08-08T03:33:51;94349.47;;;13.88;100.00
55590;BME280;41452;42.780;23.116;2023-08-08T03:36:16;94370.19;;;14.02;100.00
55590;BME280;41452;42.780;23.116;2023-08-08T03:38:41;94405.94;;;14.15;100.00
55590;BME280;41452;42.780;23.116;2023-08-08T03:41:11;94413.56;;;14.11;100.00
55590;BME280;41452;42.780;23.116;2023-08-08T03:43:37;94407.94;;;14.02;100.00
55590;BME280;41452;42.780;23.116;2023-08-08T03:46:02;94407.16;;;14.02;100.00
55590;BME280;41452;42.780;23.116;2023-08-08T03:48:28;94412.47;;;14.07;100.00
55590;BME280;41452;42.780;23.116;2023-08-08T03:50:53;94418.06;;;14.11;100.00
55590;BME280;41452;42.780;23.116;2023-08-08T03:53:18;94420.09;;;14.03;100.00
55590;BME280;41452;42.780;23.116;2023-08-08T03:55:44;94420.59;;;14.00;100.00
55590;BME280;41452;42.780;23.116;2023-08-08T03:58:09;94425.34;;;13.98;100.00
55590;BME280;41452;42.780;23.116;2023-08-08T04:00:35;94422.13;;;13.96;100.00
55590;BME280;41452;42.780;23.116;2023-08-08T04:03:00;94411.53;;;13.91;100.00
55590;BME280;41452;42.780;23.116;2023-08-08T04:05:25;94417.34;;;13.93;100.00
55590;BME280;41452;42.780;23.116;2023-08-08T04:07:51;94443.28;;;14.01;100.00
55590;BME280;41452;42.780;23.116;2023-08-08T04:10:16;94437.78;;;14.03;100.00
55590;BME280;41452;42.780;23.116;2023-08-08T04:12:42;94438.59;;;14.03;100.00
55590;BME280;41452;42.780;23.116;2023-08-08T04:15:07;94431.88;;;13.96;100.00
55590;BME280;41452;42.780;23.116;2023-08-08T04:17:33;94449.94;;;14.04;100.00
55590;BME280;41452;42.780;23.116;2023-08-08T04:19:58;94450.00;;;14.09;100.00
55590;BME280;41452;42.780;23.116;2023-08-08T04:22:23;94426.13;;;13.99;100.00
55590;BME280;41452;42.780;23.116;2023-08-08T04:24:49;94448.44;;;14.13;100.00
55590;BME280;41452;42.780;23.116;2023-08-08T04:27:14;94438.22;;;14.22;100.00
55590;BME280;41452;42.780;23.116;2023-08-08T04:29:40;94406.19;;;14.13;100.00
55590;BME280;41452;42.780;23.116;2023-08-08T04:32:05;94428.25;;;14.29;100.00
55590;BME280;41452;42.780;23.116;2023-08-08T04:34:31;94426.16;;;14.31;100.00
55590;BME280;41452;42.780;23.116;2023-08-08T04:36:56;94416.03;;;14.23;100.00
55590;BME280;41452;42.780;23.116;2023-08-08T04:39:21;94442.78;;;14.32;100.00
55590;BME280;41452;42.780;23.116;2023-08-08T04:41:47;94444.41;;;14.33;100.00
55590;BME280;41452;42.780;23.116;2023-08-08T04:44:12;94447.31;;;14.36;100.00
55590;BME280;41452;42.780;23.116;2023-08-08T04:46:38;94442.25;;;14.30;100.00
55590;BME280;41452;42.780;23.116;2023-08-08T04:49:03;94463.19;;;14.36;100.00
55590;BME280;41452;42.780;23.116;2023-08-08T04:51:28;94491.22;;;14.42;100.00
55590;BME280;41452;42.780;23.116;2023-08-08T04:53:54;94493.31;;;14.40;100.00
55590;BME280;41452;42.780;23.116;2023-08-08T04:56:20;94494.28;;;14.29;100.00
55590;BME280;41452;42.780;23.116;2023-08-08T04:58:46;94511.03;;;14.40;100.00
55590;BME280;41452;42.780;23.116;2023-08-08T05:01:11;94498.31;;;14.37;100.00
55590;BME280;41452;42.780;23.116;2023-08-08T05:03:39;94493.44;;;14.23;100.00
55590;BME280;41452;42.780;23.116;2023-08-08T05:06:05;94510.28;;;14.44;100.00
55590;BME280;41452;42.780;23.116;2023-08-08T05:08:30;94499.50;;;14.51;100.00
55590;BME280;41452;42.780;23.116;2023-08-08T05:10:55;94466.72;;;14.20;100.00
55590;BME280;41452;42.780;23.116;2023-08-08T05:13:21;94484.84;;;14.38;100.00
55590;BME280;41452;42.780;23.116;2023-08-08T05:15:46;94501.56;;;14.44;100.00
55590;BME280;41452;42.780;23.116;2023-08-08T05:18:11;94492.69;;;14.28;100.00
55590;BME280;41452;42.780;23.116;2023-08-08T05:20:37;94526.59;;;14.36;100.00
55590;BME280;41452;42.780;23.116;2023-08-08T05:23:02;94521.75;;;14.28;100.00
55590;BME280;41452;42.780;23.116;2023-08-08T05:25:28;94526.00;;;14.29;100.00
55590;BME280;41452;42.780;23.116;2023-08-08T05:27:53;94503.00;;;14.02;100.00
55590;BME280;41452;42.780;23.116;2023-08-08T05:30:21;94551.06;;;14.26;100.00
55590;BME280;41452;42.780;23.116;2023-08-08T05:32:46;94551.78;;;14.22;100.00
55590;BME280;41452;42.780;23.116;2023-08-08T05:35:13;94527.47;;;13.98;100.00
55590;BME280;41452;42.780;23.116;2023-08-08T05:37:38;94549.63;;;14.19;100.00
55590;BME280;41452;42.780;23.116;2023-08-08T05:40:04;94546.94;;;14.14;100.00
55590;BME280;41452;42.780;23.116;2023-08-08T05:42:31;94538.41;;;14.06;100.00
55590;BME280;41452;42.780;23.116;2023-08-08T05:44:57;94541.19;;;14.17;100.00
55590;BME280;41452;42.780;23.116;2023-08-08T05:47:22;94534.81;;;14.13;100.00
55590;BME280;41452;42.780;23.116;2023-08-08T05:49:47;94546.94;;;14.14;100.00
55590;BME280;41452;42.780;23.116;2023-08-08T05:52:13;94542.47;;;14.14;100.00
55590;BME280;41452;42.780;23.116;2023-08-08T05:54:38;94551.25;;;14.20;100.00
55590;BME280;41452;42.780;23.116;2023-08-08T05:57:04;94551.31;;;14.25;100.00
55590;BME280;41452;42.780;23.116;2023-08-08T05:59:29;94555.22;;;14.22;100.00
55590;BME280;41452;42.780;23.116;2023-08-08T06:01:55;94543.69;;;14.29;100.00
55590;BME280;41452;42.780;23.116;2023-08-08T06:04:21;94555.94;;;14.40;100.00
55590;BME280;41452;42.780;23.116;2023-08-08T06:06:46;94560.56;;;14.50;100.00
55590;BME280;41452;42.780;23.116;2023-08-08T06:09:14;94547.28;;;14.44;100.00
55590;BME280;41452;42.780;23.116;2023-08-08T06:11:39;94571.22;;;14.60;100.00
55590;BME280;41452;42.780;23.116;2023-08-08T06:14:05;94565.94;;;14.60;100.00
55590;BME280;41452;42.780;23.116;2023-08-08T06:16:30;94568.16;;;14.68;100.00
55590;BME280;41452;42.780;23.116;2023-08-08T06:18:55;94573.00;;;14.76;100.00
55590;BME280;41452;42.780;23.116;2023-08-08T06:21:21;94553.56;;;14.60;100.00
55590;BME280;41452;42.780;23.116;2023-08-08T06:23:46;94575.34;;;14.73;100.00
55590;BME280;41452;42.780;23.116;2023-08-08T06:26:13;94577.69;;;14.69;100.00
55590;BME280;41452;42.780;23.116;2023-08-08T06:28:38;94578.22;;;14.71;100.00
55590;BME280;41452;42.780;23.116;2023-08-08T06:31:03;94573.78;;;14.55;100.00
55590;BME280;41452;42.780;23.116;2023-08-08T06:33:29;94584.00;;;14.68;100.00
55590;BME280;41452;42.780;23.116;2023-08-08T06:35:55;94574.13;;;14.58;100.00
55590;BME280;41452;42.780;23.116;2023-08-08T06:38:21;94561.94;;;14.57;100.00
55590;BME280;41452;42.780;23.116;2023-08-08T06:40:46;94567.44;;;14.78;100.00
55590;BME280;41452;42.780;23.116;2023-08-08T06:43:12;94588.38;;;14.85;100.00
55590;BME280;41452;42.780;23.116;2023-08-08T06:45:38;94581.25;;;14.85;100.00
55590;BME280;41452;42.780;23.116;2023-08-08T06:48:04;94589.56;;;14.99;100.00
55590;BME280;41452;42.780;23.116;2023-08-08T06:50:29;94603.34;;;15.01;100.00
55590;BME280;41452;42.780;23.116;2023-08-08T06:52:55;94596.31;;;14.85;100.00
55590;BME280;41452;42.780;23.116;2023-08-08T06:55:20;94602.00;;;14.98;100.00
55590;BME280;41452;42.780;23.116;2023-08-08T06:57:46;94589.19;;;14.85;100.00
55590;BME280;41452;42.780;23.116;2023-08-08T07:00:11;94597.94;;;14.86;100.00
55590;BME280;41452;42.780;23.116;2023-08-08T07:02:38;94597.25;;;15.00;100.00
55590;BME280;41452;42.780;23.116;2023-08-08T07:05:04;94587.47;;;15.01;97.20
55590;BME280;41452;42.780;23.116;2023-08-08T07:07:30;94590.44;;;15.10;97.53
55590;BME280;41452;42.780;23.116;2023-08-08T07:09:58;94580.13;;;15.08;100.00
55590;BME280;41452;42.780;23.116;2023-08-08T07:12:23;94581.19;;;15.07;98.74
55590;BME280;41452;42.780;23.116;2023-08-08T07:14:48;94581.72;;;15.09;100.00
55590;BME280;41452;42.780;23.116;2023-08-08T07:17:14;94581.72;;;15.09;98.78
55590;BME280;41452;42.780;23.116;2023-08-08T07:19:39;94545.63;;;14.93;99.22
55590;BME280;41452;42.780;23.116;2023-08-08T07:22:06;94587.69;;;15.27;97.65
55590;BME280;41452;42.780;23.116;2023-08-08T07:24:31;94583.66;;;15.19;100.00
55590;BME280;41452;42.780;23.116;2023-08-08T07:26:58;94578.13;;;15.26;100.00
55590;BME280;41452;42.780;23.116;2023-08-08T07:29:23;94578.50;;;15.39;100.00
55590;BME280;41452;42.780;23.116;2023-08-08T07:31:52;94583.66;;;15.56;97.30
55590;BME280;41452;42.780;23.116;2023-08-08T07:34:18;94584.75;;;15.61;99.41
55590;BME280;41452;42.780;23.116;2023-08-08T07:36:43;94586.63;;;15.70;96.49
55590;BME280;41452;42.780;23.116;2023-08-08T07:39:09;94587.44;;;15.71;94.12
55590;BME280;41452;42.780;23.116;2023-08-08T07:41:34;94579.44;;;15.61;92.45
55590;BME280;41452;42.780;23.116;2023-08-08T07:44:00;94562.78;;;15.60;91.53
55590;BME280;41452;42.780;23.116;2023-08-08T07:46:25;94566.03;;;15.72;93.37
55590;BME280;41452;42.780;23.116;2023-08-08T07:48:51;94578.56;;;15.87;92.09
55590;BME280;41452;42.780;23.116;2023-08-08T07:51:16;94585.44;;;15.83;94.10
55590;BME280;41452;42.780;23.116;2023-08-08T07:53:41;94576.22;;;15.96;93.09
55590;BME280;41452;42.780;23.116;2023-08-08T07:56:07;94582.31;;;15.96;91.21
55590;BME280;41452;42.780;23.116;2023-08-08T07:58:32;94575.97;;;15.98;90.45
55590;BME280;41452;42.780;23.116;2023-08-08T08:00:58;94573.88;;;16.05;92.70
55590;BME280;41452;42.780;23.116;2023-08-08T08:03:25;94580.28;;;16.19;91.25
55590;BME280;41452;42.780;23.116;2023-08-08T08:05:50;94589.88;;;16.30;91.11
55590;BME280;41452;42.780;23.116;2023-08-08T08:08:16;94560.41;;;16.16;91.74
55590;BME280;41452;42.780;23.116;2023-08-08T08:10:41;94585.38;;;16.31;90.32
55590;BME280;41452;42.780;23.116;2023-08-08T08:13:07;94562.84;;;16.28;92.59
55590;BME280;41452;42.780;23.116;2023-08-08T08:15:33;94582.25;;;16.49;89.18
55590;BME280;41452;42.780;23.116;2023-08-08T08:17:58;94567.16;;;16.55;91.52
55590;BME280;41452;42.780;23.116;2023-08-08T08:20:24;94584.94;;;16.65;93.26
55590;BME280;41452;42.780;23.116;2023-08-08T08:22:50;94585.19;;;16.63;88.76
55590;BME280;41452;42.780;23.116;2023-08-08T08:25:15;94589.69;;;16.63;89.56
55590;BME280;41452;42.780;23.116;2023-08-08T08:27:41;94590.22;;;16.60;85.51
55590;BME280;41452;42.780;23.116;2023-08-08T08:30:07;94592.34;;;16.68;88.47
55590;BME280;41452;42.780;23.116;2023-08-08T08:32:36;94601.69;;;16.81;87.69
55590;BME280;41452;42.780;23.116;2023-08-08T08:35:02;94579.13;;;16.78;84.46
55590;BME280;41452;42.780;23.116;2023-08-08T08:37:31;94551.78;;;16.67;87.70
55590;BME280;41452;42.780;23.116;2023-08-08T08:39:57;94600.13;;;16.85;87.38
55590;BME280;41452;42.780;23.116;2023-08-08T08:42:22;94601.16;;;16.84;84.80
55590;BME280;41452;42.780;23.116;2023-08-08T08:44:49;94590.56;;;16.94;87.87
55590;BME280;41452;42.780;23.116;2023-08-08T08:47:17;94585.81;;;16.96;85.09
55590;BME280;41452;42.780;23.116;2023-08-08T08:49:45;94609.97;;;17.20;80.90
55590;BME280;41452;42.780;23.116;2023-08-08T08:52:11;94609.44;;;17.13;81.07
55590;BME280;41452;42.780;23.116;2023-08-08T08:54:37;94600.66;;;17.18;87.14
55590;BME280;41452;42.780;23.116;2023-08-08T08:57:02;94595.91;;;17.35;82.23
55590;BME280;41452;42.780;23.116;2023-08-08T08:59:28;94554.75;;;17.07;85.05
55590;BME280;41452;42.780;23.116;2023-08-08T09:01:55;94571.75;;;17.21;81.31
55590;BME280;41452;42.780;23.116;2023-08-08T09:04:21;94613.41;;;17.31;82.54
55590;BME280;41452;42.780;23.116;2023-08-08T09:06:47;94600.69;;;17.38;79.93
55590;BME280;41452;42.780;23.116;2023-08-08T09:09:13;94597.50;;;17.36;83.65
55590;BME280;41452;42.780;23.116;2023-08-08T09:11:43;94580.50;;;17.37;77.27
55590;BME280;41452;42.780;23.116;2023-08-08T09:14:20;94603.06;;;17.35;83.74
55590;BME280;41452;42.780;23.116;2023-08-08T09:16:46;94592.97;;;17.52;80.87
55590;BME280;41452;42.780;23.116;2023-08-08T09:19:13;94612.88;;;17.60;79.63
55590;BME280;41452;42.780;23.116;2023-08-08T09:21:39;94614.19;;;17.67;79.65
55590;BME280;41452;42.780;23.116;2023-08-08T09:24:05;94612.59;;;17.66;78.30
55590;BME280;41452;42.780;23.116;2023-08-08T09:26:30;94604.38;;;17.78;78.67
55590;BME280;41452;42.780;23.116;2023-08-08T09:28:56;94596.34;;;17.99;78.02
55590;BME280;41452;42.780;23.116;2023-08-08T09:31:25;94593.72;;;17.94;77.75
55590;BME280;41452;42.780;23.116;2023-08-08T09:33:51;94591.34;;;17.82;75.51
55590;BME280;41452;42.780;23.116;2023-08-08T09:36:17;94593.94;;;18.13;78.61
55590;BME280;41452;42.780;23.116;2023-08-08T09:38:45;94594.16;;;18.27;77.60
55590;BME280;41452;42.780;23.116;2023-08-08T09:41:11;94558.34;;;18.03;75.17
55590;BME280;41452;42.780;23.116;2023-08-08T09:43:36;94585.06;;;18.33;74.62
55590;BME280;41452;42.780;23.116;2023-08-08T09:46:02;94597.78;;;18.46;76.46
55590;BME280;41452;42.780;23.116;2023-08-08T09:48:32;94588.44;;;18.54;77.38
55590;BME280;41452;42.780;23.116;2023-08-08T09:51:00;94597.81;;;18.41;71.49
55590;BME280;41452;42.780;23.116;2023-08-08T09:53:27;94575.94;;;18.49;74.45
55590;BME280;41452;42.780;23.116;2023-08-08T09:55:56;94589.16;;;18.65;71.15
55590;BME280;41452;42.780;23.116;2023-08-08T09:58:22;94584.41;;;18.61;71.58
55590;BME280;41452;42.780;23.116;2023-08-08T10:00:51;94582.53;;;18.62;73.69
55590;BME280;41452;42.780;23.116;2023-08-08T10:03:18;94584.09;;;18.68;71.73
55590;BME280;41452;42.780;23.116;2023-08-08T10:05:44;94599.84;;;18.59;71.61
55590;BME280;41452;42.780;23.116;2023-08-08T10:08:10;94589.72;;;18.61;74.54
55590;BME280;41452;42.780;23.116;2023-08-08T10:10:37;94582.19;;;18.74;73.13
55590;BME280;41452;42.780;23.116;2023-08-08T10:13:03;94566.72;;;18.81;76.13
55590;BME280;41452;42.780;23.116;2023-08-08T10:15:30;94593.00;;;18.98;69.31
55590;BME280;41452;42.780;23.116;2023-08-08T10:17:56;94587.13;;;19.01;71.66
55590;BME280;41452;42.780;23.116;2023-08-08T10:20:24;94604.59;;;19.12;70.51
55590;BME280;41452;42.780;23.116;2023-08-08T10:22:51;94597.16;;;19.09;70.72
55590;BME280;41452;42.780;23.116;2023-08-08T10:25:28;94572.97;;;19.06;68.04
55590;BME280;41452;42.780;23.116;2023-08-08T10:30:29;94586.09;;;19.31;67.67
55590;BME280;41452;42.780;23.116;2023-08-08T10:32:56;94571.28;;;19.15;70.37
55590;BME280;41452;42.780;23.116;2023-08-08T10:35:22;94596.75;;;19.31;69.60
55590;BME280;41452;42.780;23.116;2023-08-08T10:37:57;94589.69;;;19.46;73.46
55590;BME280;41452;42.780;23.116;2023-08-08T10:40:23;94536.16;;;19.18;68.23
55590;BME280;41452;42.780;23.116;2023-08-08T10:42:48;94585.94;;;19.47;73.41
55590;BME280;41452;42.780;23.116;2023-08-08T10:45:15;94591.84;;;19.44;72.31
55590;BME280;41452;42.780;23.116;2023-08-08T10:47:41;94587.47;;;19.58;75.38
55590;BME280;41452;42.780;23.116;2023-08-08T10:50:15;94582.38;;;19.62;71.59
55590;BME280;41452;42.780;23.116;2023-08-08T10:57:57;94596.31;;;19.83;68.85
55590;BME280;41452;42.780;23.116;2023-08-08T11:00:25;94566.19;;;19.82;68.28
55590;BME280;41452;42.780;23.116;2023-08-08T11:02:53;94571.69;;;19.91;72.64
55590;BME280;41452;42.780;23.116;2023-08-08T11:05:19;94572.78;;;20.14;71.14
55590;BME280;41452;42.780;23.116;2023-08-08T11:07:45;94581.28;;;20.16;68.24
55590;BME280;41452;42.780;23.116;2023-08-08T11:10:11;94570.78;;;20.25;70.15
55590;BME280;41452;42.780;23.116;2023-08-08T11:12:37;94570.53;;;20.45;66.51
55590;BME280;41452;42.780;23.116;2023-08-08T11:15:02;94561.88;;;20.54;66.96
55590;BME280;41452;42.780;23.116;2023-08-08T11:17:28;94560.88;;;20.49;65.47
55590;BME280;41452;42.780;23.116;2023-08-08T11:19:53;94564.47;;;20.59;67.07
55590;BME280;41452;42.780;23.116;2023-08-08T11:22:21;94547.97;;;20.57;65.57
55590;BME280;41452;42.780;23.116;2023-08-08T11:24:46;94560.13;;;20.68;65.84
55590;BME280;41452;42.780;23.116;2023-08-08T11:27:11;94558.69;;;20.76;63.29
55590;BME280;41452;42.780;23.116;2023-08-08T11:29:37;94561.34;;;20.76;67.80
55590;BME280;41452;42.780;23.116;2023-08-08T11:32:02;94559.47;;;20.76;63.16
55590;BME280;41452;42.780;23.116;2023-08-08T11:34:34;94539.09;;;20.42;65.03
55590;BME280;41452;42.780;23.116;2023-08-08T11:37:00;94559.59;;;20.66;63.43
55590;BME280;41452;42.780;23.116;2023-08-08T11:39:26;94553.06;;;20.77;64.52
55590;BME280;41452;42.780;23.116;2023-08-08T11:41:52;94540.06;;;20.70;63.74
55590;BME280;41452;42.780;23.116;2023-08-08T11:44:19;94561.72;;;20.88;64.55
55590;BME280;41452;42.780;23.116;2023-08-08T11:46:45;94559.19;;;20.97;61.50
55590;BME280;41452;42.780;23.116;2023-08-08T11:49:15;94551.66;;;20.99;64.18
55590;BME280;41452;42.780;23.116;2023-08-08T11:51:43;94549.66;;;20.91;59.28
55590;BME280;41452;42.780;23.116;2023-08-08T11:54:08;94530.69;;;20.54;62.33
55590;BME280;41452;42.780;23.116;2023-08-08T11:56:34;94546.06;;;20.62;62.79
55590;BME280;41452;42.780;23.116;2023-08-08T11:59:01;94550.41;;;20.77;62.18
55590;BME280;41452;42.780;23.116;2023-08-08T12:01:27;94538.22;;;20.28;61.21
55590;BME280;41452;42.780;23.116;2023-08-08T12:03:53;94526.53;;;20.67;62.37
55590;BME280;41452;42.780;23.116;2023-08-08T12:06:19;94541.25;;;20.64;61.48
55590;BME280;41452;42.780;23.116;2023-08-08T12:08:46;94538.19;;;20.71;61.39
55590;BME280;41452;42.780;23.116;2023-08-08T12:11:13;94537.34;;;20.95;61.53
55590;BME280;41452;42.780;23.116;2023-08-08T12:13:41;94525.63;;;20.91;63.00
55590;BME280;41452;42.780;23.116;2023-08-08T12:16:09;94521.81;;;20.97;60.24
55590;BME280;41452;42.780;23.116;2023-08-08T12:18:36;94516.59;;;21.05;61.03
55590;BME280;41452;42.780;23.116;2023-08-08T12:21:06;94517.88;;;21.08;60.44
55590;BME280;41452;42.780;23.116;2023-08-08T12:23:32;94495.81;;;21.02;61.15
55590;BME280;41452;42.780;23.116;2023-08-08T12:25:58;94512.19;;;21.15;60.83
55590;BME280;41452;42.780;23.116;2023-08-08T12:28:24;94496.31;;;21.04;57.45
55590;BME280;41452;42.780;23.116;2023-08-08T12:30:50;94514.69;;;21.25;62.32
55590;BME280;41452;42.780;23.116;2023-08-08T12:33:15;94491.22;;;21.22;63.76
55590;BME280;41452;42.780;23.116;2023-08-08T12:35:40;94504.13;;;21.34;59.78
55590;BME280;41452;42.780;23.116;2023-08-08T12:38:06;94518.47;;;21.38;60.53
55590;BME280;41452;42.780;23.116;2023-08-08T12:40:32;94515.47;;;21.25;59.85
55590;BME280;41452;42.780;23.116;2023-08-08T12:42:59;94494.22;;;21.34;61.13
55590;BME280;41452;42.780;23.116;2023-08-08T12:45:24;94473.81;;;21.24;61.50
55590;BME280;41452;42.780;23.116;2023-08-08T12:47:49;94507.69;;;21.43;60.65
55590;BME280;41452;42.780;23.116;2023-08-08T12:50:15;94510.84;;;21.45;57.46
55590;BME280;41452;42.780;23.116;2023-08-08T12:52:40;94509.66;;;21.37;57.53